Flight Track Log - Related Links

Times and Time Zones

All times are in EDT time to prevent confusion due to time zone crossing. See the SKW6528 flight status page for this flight to view local times or setup timezone preferences in your user account.

Time Position Orientation Groundspeed Altitude Reporting Facility
EDT Latitude Longitude Course Direction KTS MPH feet Rate Location/Type
Tue 09:11:17 AM 35.4278 -119.1267 132° Southeast 216 249 33,000  Level Los Angeles Center
Tue 09:12:18 AM 35.3692 -119.1094 167° South 251 289 6,200 -12,148 Descending Los Angeles Center
Tue 09:13:00 AM 35.0876 -118.6494 136° Southeast  Level FlightAware Approximate
Tue 09:13:19 AM 35.3236 -119.0439 130° Southeast 250 288 8,300  Level Los Angeles Center
Tue 09:14:00 AM 35.0026 -118.5455 129° Southeast  Level FlightAware Approximate
Tue 09:14:19 AM 35.2711 -118.9681 130° Southeast 276 318 10,100  Level Los Angeles Center
Tue 09:15:00 AM 34.9205 -118.4390 129° Southeast  Level FlightAware Approximate
Tue 09:16:00 AM 34.8395 -118.3305 132° Southeast  Level FlightAware Approximate
Tue 09:16:21 AM 35.1489 -118.7944 131° Southeast 339 390 13,900  Level Los Angeles Center
Tue 09:17:22 AM 35.0869 -118.7050 130° Southeast 344 396 15,900 1,721 Climbing Los Angeles Center
Tue 09:18:23 AM 35.0233 -118.6142 131° Southeast 351 404 17,400 1,209 Climbing Los Angeles Center
Tue 09:19:36 AM 34.9556 -118.5200 131° Southeast 365 420 18,600 1,478 Climbing Los Angeles Center
Tue 09:20:37 AM 34.8697 -118.3992 131° Southeast 376 433 20,700 1,574 Climbing Los Angeles Center
Tue 09:21:38 AM 34.8008 -118.3036 131° Southeast 379 436 21,800 1,033 Climbing Los Angeles Center
Tue 09:22:39 AM 34.7303 -118.2036 131° Southeast 390 449 22,800 984 Climbing Los Angeles Center
Tue 09:23:40 AM 34.6569 -118.1025 131° Southeast 400 460 23,800 934 Climbing Los Angeles Center
Tue 09:24:41 AM 34.6414 -117.9744 98° East 400 460 24,700 590 Climbing Los Angeles Center
Tue 09:25:42 AM 34.6564 -117.8400 82° East 404 465 25,000 639 Climbing Los Angeles Center
Tue 09:26:43 AM 34.6736 -117.6711 83° East 422 486 26,000 984 Climbing Los Angeles Center
Tue 09:27:44 AM 34.6878 -117.5328 83° East 419 482 27,000 984 Climbing Los Angeles Center
Tue 09:28:45 AM 34.7031 -117.3972 82° East 411 473 28,000 934 Climbing Los Angeles Center
Tue 09:29:46 AM 34.7411 -117.2703 70° East 404 465 28,900 689 Climbing Los Angeles Center
Tue 09:30:47 AM 34.7725 -117.1692 69° East 402 463 29,400 541 Climbing Los Angeles Center
Tue 09:31:48 AM 34.8375 -117.0261 61° Northeast 412 474 30,000 541 Climbing Los Angeles Center
Tue 09:32:49 AM 34.9092 -116.9208 50° Northeast 406 467 30,500 488 Climbing Los Angeles Center
Tue 09:33:51 AM 34.9825 -116.8136 50° Northeast 412 474 31,000 537 Climbing Los Angeles Center
Tue 09:34:52 AM 35.0706 -116.6856 50° Northeast 413 475 31,600 541 Climbing Los Angeles Center
Tue 09:35:53 AM 35.1431 -116.5758 51° Northeast 414 476 32,100 541 Climbing Los Angeles Center
Tue 09:36:54 AM 35.2167 -116.4664 51° Northeast 417 480 32,700 400 Climbing Los Angeles Center
Tue 09:38:08 AM 35.2892 -116.3583 51° Northeast 412 474 33,000 133 Climbing Los Angeles Center
Tue 09:39:09 AM 35.3525 -116.2025 63° Northeast 428 493 33,000  Level Los Angeles Center
Tue 09:40:11 AM 35.4056 -116.0706 64° Northeast 431 496 33,000  Level Los Angeles Center
Tue 09:41:12 AM 35.4592 -115.9381 64° Northeast 433 498 33,000  Level Los Angeles Center
Tue 09:42:14 AM 35.5239 -115.7833 63° Northeast 433 498 33,000  Level Los Angeles Center
Tue 09:43:15 AM 35.5778 -115.6528 63° Northeast 431 496 33,000  Level Los Angeles Center
Tue 09:44:16 AM 35.6314 -115.5192 64° Northeast 435 501 33,000  Level Los Angeles Center
Tue 09:45:18 AM 35.6850 -115.3872 63° Northeast 434 499 33,000  Level Los Angeles Center
Tue 09:46:19 AM 35.7389 -115.2544 63° Northeast 436 502 33,000  Level Los Angeles Center
Tue 09:47:21 AM 35.7892 -115.1222 65° Northeast 430 495 33,000  Level Los Angeles Center
Tue 09:48:22 AM 35.8436 -114.9886 63° Northeast 437 503 33,000  Level Los Angeles Center
Tue 09:49:24 AM 35.9061 -114.8269 64° Northeast 437 503 33,000  Level Los Angeles Center
Tue 09:50:25 AM 35.9600 -114.6911 64° Northeast 442 509 33,000  Level Los Angeles Center
Tue 09:51:27 AM 36.0128 -114.5567 64° Northeast 439 505 33,000  Level Los Angeles Center
Tue 09:52:28 AM 36.0664 -114.4208 64° Northeast 441 507 33,000  Level Los Angeles Center
Tue 09:53:30 AM 36.1194 -114.2844 64° Northeast 441 507 33,000  Level Los Angeles Center
Tue 09:54:43 AM 36.1731 -114.1478 64° Northeast 442 509 33,000  Level Los Angeles Center
Tue 09:55:45 AM 36.2353 -113.9828 65° Northeast 442 509 33,000  Level Los Angeles Center
Tue 09:56:46 AM 36.2997 -113.8183 64° Northeast 443 510 33,000  Level Los Angeles Center
Tue 09:57:48 AM 36.3519 -113.6797 65° Northeast 444 511 33,000  Level Los Angeles Center
Tue 09:58:49 AM 36.4044 -113.5411 65° Northeast 444 511 33,000  Level Los Angeles Center
Tue 09:59:51 AM 36.4592 -113.4008 64° Northeast 449 517 33,000  Level Los Angeles Center
Tue 10:00:53 AM 36.5061 -113.2733 65° Northeast 450 518 33,000  Level Los Angeles Center
Tue 10:01:54 AM 36.5694 -113.1039 65° Northeast 453 521 33,000  Level Los Angeles Center
Tue 10:02:55 AM 36.6125 -112.9908 65° Northeast 454 522 33,000  Level Los Angeles Center
Tue 10:03:57 AM 36.6758 -112.8192 65° Northeast 456 525 33,000  Level Los Angeles Center
Tue 10:04:59 AM 36.7286 -112.6767 65° Northeast 456 525 33,000  Level Los Angeles Center
Tue 10:06:00 AM 36.7808 -112.5342 65° Northeast 456 525 33,000  Level Los Angeles Center
Tue 10:07:02 AM 36.8333 -112.3933 65° Northeast 452 520 33,000  Level Los Angeles Center
Tue 10:08:04 AM 36.8947 -112.2225 66° East 452 520 33,000  Level Los Angeles Center
Tue 10:09:05 AM 36.9464 -112.0808 65° Northeast 450 518 33,000  Level Los Angeles Center
Tue 10:09:40 AM 36.9764 -111.9964 66° East 451 519 33,000  Level Denver Center
Tue 10:10:41 AM 37.0289 -111.8511 66° East 456 525 33,000  Level Denver Center
Tue 10:11:43 AM 37.0794 -111.7078 66° East 455 524 33,000  Level Denver Center
Tue 10:12:45 AM 37.1314 -111.5653 65° Northeast 454 522 33,000  Level Denver Center
Tue 10:13:46 AM 37.1831 -111.4214 66° East 453 521 33,000  Level Denver Center
Tue 10:14:48 AM 37.2328 -111.2775 67° East 453 521 33,000  Level Denver Center
Tue 10:15:49 AM 37.2842 -111.1328 66° East 456 525 33,000  Level Denver Center
Tue 10:16:51 AM 37.3444 -110.9586 66° East 456 525 33,000  Level Denver Center
Tue 10:17:52 AM 37.3944 -110.8128 67° East 455 524 33,000  Level Denver Center
Tue 10:18:54 AM 37.4458 -110.6667 66° East 459 528 33,000  Level Denver Center
Tue 10:19:55 AM 37.4953 -110.5225 67° East 461 531 33,000  Level Denver Center
Tue 10:20:57 AM 37.5517 -110.3569 67° East 462 532 33,000  Level Denver Center
Tue 10:21:59 AM 37.6003 -110.2144 67° East 462 532 33,000  Level Denver Center
Tue 10:23:00 AM 37.6575 -110.0489 66° East 460 529 33,000  Level Denver Center
Tue 10:24:02 AM 37.7053 -109.9067 67° East 459 528 33,000  Level Denver Center
Tue 10:25:04 AM 37.7531 -109.7625 67° East 461 531 33,000  Level Denver Center
Tue 10:26:05 AM 37.8092 -109.5944 67° East 464 534 33,000  Level Denver Center
Tue 10:27:07 AM 37.8569 -109.4514 67° East 462 532 33,000  Level Denver Center
Tue 10:28:09 AM 37.9119 -109.2822 68° East 464 534 33,000  Level Denver Center
Tue 10:29:11 AM 37.9606 -109.1361 67° East 467 537 33,000  Level Denver Center
Tue 10:30:13 AM 38.0156 -108.9686 67° East 463 533 33,000  Level Denver Center
Tue 10:31:15 AM 38.0619 -108.8228 68° East 466 536 33,000  Level Denver Center
Tue 10:32:16 AM 38.1100 -108.6747 68° East 471 542 33,000  Level Denver Center
Tue 10:33:18 AM 38.1647 -108.5031 68° East 470 541 33,000  Level Denver Center
Tue 10:34:20 AM 38.2117 -108.3583 68° East 468 539 33,000  Level Denver Center
Tue 10:35:22 AM 38.2661 -108.1853 68° East 470 541 33,000  Level Denver Center
Tue 10:36:24 AM 38.3119 -108.0394 68° East 465 535 33,000  Level Denver Center
Tue 10:37:26 AM 38.3669 -107.8669 68° East 470 541 33,000 -97 Level Denver Center
Tue 10:38:28 AM 38.4133 -107.7181 68° East 473 544 32,800 -677 Descending Denver Center
Tue 10:39:30 AM 38.4742 -107.5472 65° Northeast 474 545 31,600 -871 Descending Denver Center
Tue 10:40:32 AM 38.5372 -107.4067 60° Northeast 476 548 31,000 -290 Descending Denver Center
Tue 10:41:34 AM 38.6075 -107.2503 60° Northeast 459 528 31,000  Level Denver Center
Tue 10:42:36 AM 38.6625 -107.1231 61° Northeast 459 528 31,000  Level Denver Center
Tue 10:43:38 AM 38.7258 -106.9836 60° Northeast 455 524 31,000  Level Denver Center
Tue 10:44:40 AM 38.7986 -106.8156 61° Northeast 452 520 31,000  Level Denver Center
Tue 10:45:42 AM 38.8608 -106.6756 60° Northeast 454 522 31,000 -397 Level Denver Center
Tue 10:46:56 AM 38.9239 -106.5358 60° Northeast 451 519 30,100 -964 Descending Denver Center
Tue 10:47:59 AM 39.0089 -106.3536 59° Northeast 461 531 28,800 -1,104 Descending Denver Center
Tue 10:49:01 AM 39.0714 -106.2169 59° Northeast 464 534 27,800 -871 Descending Denver Center
Tue 10:50:03 AM 39.1453 -106.0525 60° Northeast 463 533 27,000 -1,210 Descending Denver Center
Tue 10:51:05 AM 39.2069 -105.9131 60° Northeast 453 521 25,300 -1,707 Descending Denver Center
Tue 10:52:06 AM 39.2533 -105.8047 61° Northeast 438 504 23,500 -2,081 Descending Denver Center
Tue 10:53:09 AM 39.3228 -105.6461 60° Northeast 424 488 21,000 -2,016 Descending Denver Center
Tue 10:54:11 AM 39.3797 -105.5161 60° Northeast 420 483 19,300 -1,597 Descending Denver Center
Tue 10:55:13 AM 39.3994 -105.3636 80° East 374 430 17,700 -1,500 Descending Denver Center
Tue 10:56:15 AM 39.4203 -105.2494 77° East 345 397 16,200 -1,548 Descending Denver Center
Tue 10:57:17 AM 39.5069 -105.2111 19° North 310 357 14,500 -1,355 Descending Denver Center
Tue 10:58:19 AM 39.5819 -105.1853 15° North 283 326 13,400 -726 Descending Denver Center
Tue 10:59:21 AM 39.6450 -105.1700 11° North 275 316 13,000 -290 Descending Denver Center
Tue 11:00:23 AM 39.7333 -105.1406 14° North 271 312 12,800 -919 Descending Denver Center
Tue 11:01:25 AM 39.7839 -105.0681 48° Northeast 269 310 11,100 -1,355 Descending Denver Center
Tue 11:02:27 AM 39.8256 -105.0075 48° Northeast 266 306 10,000 -1,161 Descending Denver Center
Tue 11:03:29 AM 39.8453 -104.9211 73° East 211 243 8,700 -1,355 Descending Denver Center
Tue 11:04:31 AM 39.8408 -104.8511 95° East 185 213 7,200 -1,452 Descending Denver Center

Login

Don't have an account? Register now (free) for customized features, flight alerts, and more!